createdAt,value
2024-04-14T00:00:16.347Z,999.90
2024-04-14T00:01:16.393Z,999.90
2024-04-14T00:02:16.349Z,999.90
2024-04-14T00:03:16.535Z,999.90
2024-04-14T00:04:16.560Z,999.90
2024-04-14T00:05:16.390Z,999.90
2024-04-14T00:06:16.308Z,999.90
2024-04-14T00:07:16.304Z,999.90
2024-04-14T00:08:16.313Z,999.90
2024-04-14T00:09:16.331Z,999.90
2024-04-14T00:10:16.302Z,999.90
2024-04-14T00:11:16.316Z,999.90
2024-04-14T00:12:16.253Z,999.90
2024-04-14T00:13:16.225Z,999.90
2024-04-14T00:14:16.239Z,999.90
2024-04-14T00:15:16.293Z,999.90
2024-04-14T00:16:16.236Z,999.90
2024-04-14T00:17:16.219Z,999.90
2024-04-14T00:18:16.291Z,999.90
2024-04-14T00:19:16.314Z,999.90
2024-04-14T00:20:16.287Z,999.90
2024-04-14T00:21:16.173Z,999.90
2024-04-14T00:22:16.160Z,999.90
2024-04-14T00:23:16.164Z,999.90
2024-04-14T00:24:16.134Z,999.90
2024-04-14T00:25:16.133Z,999.90
2024-04-14T00:26:16.223Z,999.90
2024-04-14T00:27:16.126Z,999.90
2024-04-14T00:28:16.107Z,999.90
2024-04-14T00:29:16.114Z,999.90
2024-04-14T00:30:16.080Z,999.90
2024-04-14T00:31:16.098Z,964.90
2024-04-14T00:32:16.150Z,999.90
2024-04-14T00:33:16.265Z,999.90
2024-04-14T00:34:16.073Z,999.90
2024-04-14T00:35:16.041Z,999.90
2024-04-14T00:36:16.038Z,999.90
2024-04-14T00:37:16.094Z,999.90
2024-04-14T00:38:16.037Z,999.90
2024-04-14T00:39:16.069Z,999.90
2024-04-14T00:40:16.020Z,999.90
2024-04-14T00:41:16.016Z,999.90
2024-04-14T00:42:16.006Z,999.90
2024-04-14T00:43:16.018Z,999.90
2024-04-14T00:44:15.949Z,999.90
2024-04-14T00:45:15.948Z,999.90
2024-04-14T00:46:15.990Z,999.90
2024-04-14T00:47:15.940Z,999.90
2024-04-14T00:48:16.030Z,999.90
2024-04-14T00:49:16.081Z,999.90
2024-04-14T00:50:15.939Z,999.90
2024-04-14T00:51:15.921Z,999.90
2024-04-14T00:52:15.891Z,999.90
2024-04-14T00:53:15.914Z,999.90
2024-04-14T00:54:15.933Z,999.90
2024-04-14T00:55:15.862Z,999.90
2024-04-14T00:56:15.862Z,999.90
2024-04-14T00:57:15.851Z,999.90
2024-04-14T00:58:15.816Z,999.90
2024-04-14T00:59:15.895Z,999.90
2024-04-14T01:00:15.873Z,999.90
2024-04-14T01:01:15.935Z,999.90
2024-04-14T01:02:15.791Z,999.90
2024-04-14T01:03:15.871Z,999.90
2024-04-14T01:04:15.834Z,999.90
2024-04-14T01:05:15.799Z,999.90
2024-04-14T01:06:15.842Z,999.90
2024-04-14T01:07:15.758Z,999.90
2024-04-14T01:08:15.741Z,999.90
2024-04-14T01:09:15.724Z,999.90
2024-04-14T01:10:15.755Z,999.90
2024-04-14T01:11:15.743Z,999.90
2024-04-14T01:12:15.793Z,999.90
2024-04-14T01:13:15.733Z,999.90
2024-04-14T01:14:15.689Z,999.90
2024-04-14T01:15:15.662Z,999.90
2024-04-14T01:16:15.679Z,999.90
2024-04-14T01:17:15.742Z,999.90
2024-04-14T01:18:15.713Z,999.90
2024-04-14T01:19:15.663Z,999.90
2024-04-14T01:20:15.641Z,999.90
2024-04-14T01:21:15.639Z,999.90
2024-04-14T01:22:15.651Z,930.30
2024-04-14T01:23:15.642Z,999.90
2024-04-14T01:24:15.612Z,999.90
2024-04-14T01:25:15.587Z,999.90
2024-04-14T01:26:15.581Z,999.90
2024-04-14T01:27:16.301Z,999.90
2024-04-14T01:28:15.526Z,999.90
2024-04-14T01:29:15.658Z,996.50
2024-04-14T01:30:15.574Z,988.10
2024-04-14T01:31:15.559Z,999.90
2024-04-14T01:32:15.591Z,999.90
2024-04-14T01:33:15.519Z,999.90
2024-04-14T01:34:15.556Z,999.90
2024-04-14T01:35:15.557Z,938.50
2024-04-14T01:36:15.517Z,858.50
2024-04-14T01:37:15.492Z,979.80
2024-04-14T01:38:22.040Z,999.90
2024-04-14T01:39:15.579Z,891.30
2024-04-14T01:40:15.487Z,999.90
2024-04-14T01:41:15.513Z,999.90
2024-04-14T01:42:15.463Z,999.90
2024-04-14T01:43:15.464Z,895.00
2024-04-14T01:44:15.432Z,999.90
2024-04-14T01:45:15.466Z,999.90
2024-04-14T01:46:15.442Z,999.90
2024-04-14T01:47:15.446Z,999.90
2024-04-14T01:48:15.445Z,999.90
2024-04-14T01:49:15.504Z,999.90
2024-04-14T01:50:15.425Z,999.90
2024-04-14T01:51:15.424Z,999.90
2024-04-14T01:52:15.330Z,999.90
2024-04-14T01:53:15.412Z,999.90
2024-04-14T01:54:15.306Z,999.90
2024-04-14T01:55:15.314Z,999.90
2024-04-14T01:56:15.288Z,999.90
2024-04-14T01:57:15.317Z,999.90
2024-04-14T01:58:15.276Z,999.90
2024-04-14T01:59:15.435Z,999.90
2024-04-14T02:00:15.242Z,999.90
2024-04-14T02:01:15.331Z,999.90
2024-04-14T02:02:15.272Z,999.90
2024-04-14T02:03:15.327Z,999.90
2024-04-14T02:04:15.326Z,999.90
2024-04-14T02:05:15.347Z,999.90
2024-04-14T02:06:15.245Z,999.90
2024-04-14T02:07:15.186Z,999.90
2024-04-14T02:08:15.191Z,999.90
2024-04-14T02:09:15.158Z,999.90
2024-04-14T02:10:15.156Z,999.90
2024-04-14T02:11:15.263Z,999.90
2024-04-14T02:12:15.162Z,999.90
2024-04-14T02:13:15.176Z,999.90
2024-04-14T02:14:15.123Z,999.90
2024-04-14T02:15:15.165Z,999.90
2024-04-14T02:16:15.133Z,999.90
2024-04-14T02:17:15.173Z,999.90
2024-04-14T02:18:15.140Z,999.90
2024-04-14T02:19:15.134Z,999.90
2024-04-14T02:20:15.134Z,999.90
2024-04-14T02:21:15.070Z,999.90
2024-04-14T02:22:15.094Z,999.90
2024-04-14T02:23:15.143Z,999.90
2024-04-14T02:24:15.074Z,999.90
2024-04-14T02:25:15.046Z,999.90
2024-04-14T02:26:15.013Z,999.90
2024-04-14T02:27:15.014Z,999.90
2024-04-14T02:28:15.026Z,999.90
2024-04-14T02:29:15.034Z,999.90
2024-04-14T02:30:15.005Z,999.90
2024-04-14T02:31:14.933Z,999.90
2024-04-14T02:32:14.999Z,999.90
2024-04-14T02:33:14.987Z,999.90
2024-04-14T02:34:14.932Z,999.90
2024-04-14T02:35:14.988Z,999.90
2024-04-14T02:36:14.929Z,999.90
2024-04-14T02:37:14.928Z,999.90
2024-04-14T02:38:14.925Z,999.90
2024-04-14T02:39:14.907Z,999.90
2024-04-14T02:40:14.905Z,999.90
2024-04-14T02:41:14.986Z,999.90
2024-04-14T02:42:14.894Z,999.90
2024-04-14T02:43:14.865Z,999.90
2024-04-14T02:44:14.865Z,999.90
2024-04-14T02:45:14.857Z,999.90
2024-04-14T02:46:14.858Z,999.90
2024-04-14T02:47:14.902Z,999.90
2024-04-14T02:48:14.901Z,999.90
2024-04-14T02:49:14.842Z,999.90
2024-04-14T02:50:14.802Z,999.90
2024-04-14T02:51:14.824Z,999.90
2024-04-14T02:52:14.753Z,999.90
2024-04-14T02:53:14.860Z,999.90
2024-04-14T02:54:14.744Z,999.90
2024-04-14T02:55:14.765Z,999.90
2024-04-14T02:56:14.751Z,999.90
2024-04-14T02:57:14.730Z,999.90
2024-04-14T02:58:14.779Z,999.90
2024-04-14T02:59:14.768Z,999.90
2024-04-14T03:00:14.718Z,999.90
2024-04-14T03:01:14.765Z,999.90
2024-04-14T03:02:14.705Z,999.90
2024-04-14T03:03:14.708Z,999.90
2024-04-14T03:04:14.820Z,999.90
2024-04-14T03:05:14.731Z,999.90
2024-04-14T03:06:14.668Z,999.90
2024-04-14T03:07:14.664Z,999.90
2024-04-14T03:08:14.662Z,999.90
2024-04-14T03:09:14.649Z,999.90
2024-04-14T03:10:14.615Z,999.90
2024-04-14T03:11:14.666Z,999.90
2024-04-14T03:12:14.593Z,999.90
2024-04-14T03:13:14.605Z,999.90
2024-04-14T03:14:14.580Z,999.90
2024-04-14T03:15:14.571Z,999.90
2024-04-14T03:16:14.585Z,999.90
2024-04-14T03:17:32.936Z,999.90
2024-04-14T03:18:14.551Z,999.90
2024-04-14T03:19:14.528Z,999.90
2024-04-14T03:20:14.481Z,999.90
2024-04-14T03:21:14.463Z,999.90
2024-04-14T03:22:14.476Z,999.90
2024-04-14T03:23:14.496Z,999.90
2024-04-14T03:24:14.483Z,999.90
2024-04-14T03:25:14.449Z,999.90
2024-04-14T03:26:14.430Z,999.90
2024-04-14T03:27:14.505Z,999.90
2024-04-14T03:28:14.402Z,999.90
2024-04-14T03:29:14.453Z,999.90
2024-04-14T03:30:14.429Z,999.90
2024-04-14T03:31:14.436Z,999.90
2024-04-14T03:32:14.377Z,999.90
2024-04-14T03:33:14.349Z,999.90
2024-04-14T03:34:14.359Z,999.90
2024-04-14T03:35:14.335Z,999.90
2024-04-14T03:36:14.289Z,999.90
2024-04-14T03:37:14.256Z,999.90
2024-04-14T03:38:14.295Z,999.90
2024-04-14T03:39:14.282Z,999.90
2024-04-14T03:40:14.279Z,999.90
2024-04-14T03:41:14.332Z,999.90
2024-04-14T03:42:14.218Z,999.90
2024-04-14T03:43:14.213Z,999.90
2024-04-14T03:44:14.196Z,999.90
2024-04-14T03:45:14.242Z,999.90
2024-04-14T03:46:14.199Z,999.90
2024-04-14T03:47:14.243Z,999.90
2024-04-14T03:48:14.234Z,999.90
2024-04-14T03:49:14.249Z,999.90
2024-04-14T03:50:14.157Z,999.90
2024-04-14T03:51:14.146Z,999.90
2024-04-14T03:52:14.159Z,999.90
2024-04-14T03:53:14.186Z,999.90
2024-04-14T03:54:14.098Z,999.90
2024-04-14T03:55:14.089Z,999.90
2024-04-14T03:56:14.157Z,999.90
2024-04-14T03:57:14.093Z,999.90
2024-04-14T03:58:14.077Z,999.90
2024-04-14T03:59:14.107Z,999.90
2024-04-14T04:00:14.071Z,999.90
2024-04-14T04:01:14.116Z,999.90
2024-04-14T04:02:14.079Z,999.90
2024-04-14T04:03:14.025Z,999.90
2024-04-14T04:04:14.164Z,999.90
2024-04-14T04:05:14.083Z,999.90
2024-04-14T04:06:14.047Z,999.90
2024-04-14T04:07:14.029Z,999.90
2024-04-14T04:08:13.997Z,999.90
2024-04-14T04:09:14.006Z,999.90
2024-04-14T04:10:13.983Z,999.90
2024-04-14T04:11:14.022Z,999.90
2024-04-14T04:12:13.953Z,999.90
2024-04-14T04:13:13.984Z,999.90
2024-04-14T04:14:13.930Z,999.90
2024-04-14T04:15:13.906Z,999.90
2024-04-14T04:16:13.894Z,999.90
2024-04-14T04:17:13.941Z,999.90
2024-04-14T04:18:14.064Z,999.90
2024-04-14T04:19:21.593Z,999.90
2024-04-14T04:20:13.871Z,999.90
2024-04-14T04:21:13.847Z,999.90
2024-04-14T04:22:13.852Z,999.90
2024-04-14T04:23:13.905Z,999.90
2024-04-14T04:24:13.825Z,999.90
2024-04-14T04:25:13.842Z,999.90
2024-04-14T04:26:13.806Z,999.90
2024-04-14T04:27:13.802Z,999.90
2024-04-14T04:28:13.781Z,999.90
2024-04-14T04:29:13.825Z,999.90
2024-04-14T04:30:13.801Z,999.90
2024-04-14T04:31:14.042Z,999.90
2024-04-14T04:32:13.830Z,999.90
2024-04-14T04:33:13.912Z,999.90
2024-04-14T04:34:13.759Z,999.90
2024-04-14T04:35:13.800Z,999.90
2024-04-14T04:36:13.736Z,999.90
2024-04-14T04:37:13.724Z,999.90
2024-04-14T04:38:13.695Z,999.90
2024-04-14T04:39:13.688Z,999.90
2024-04-14T04:40:13.692Z,999.90
2024-04-14T04:41:13.737Z,999.90
2024-04-14T04:42:13.670Z,999.90
2024-04-14T04:43:13.676Z,999.90
2024-04-14T04:44:13.630Z,999.90
2024-04-14T04:45:13.650Z,999.90
2024-04-14T04:46:13.611Z,999.90
2024-04-14T04:47:13.720Z,999.90
2024-04-14T04:48:13.686Z,999.90
2024-04-14T04:49:13.658Z,999.90
2024-04-14T04:50:13.601Z,999.90
2024-04-14T04:51:13.579Z,999.90
2024-04-14T04:52:13.570Z,999.90
2024-04-14T04:53:13.625Z,999.90
2024-04-14T04:54:13.557Z,999.90
2024-04-14T04:55:13.540Z,999.90
2024-04-14T04:56:13.542Z,999.90
2024-04-14T04:57:13.527Z,999.90
2024-04-14T04:58:13.513Z,999.90
2024-04-14T04:59:13.551Z,999.90
2024-04-14T05:00:13.493Z,999.90
2024-04-14T05:01:13.644Z,999.90
2024-04-14T05:02:13.480Z,999.90
2024-04-14T05:03:13.602Z,999.90
2024-04-14T05:04:13.569Z,999.90
2024-04-14T05:05:13.503Z,999.90
2024-04-14T05:06:13.430Z,999.90
2024-04-14T05:07:13.462Z,999.90
2024-04-14T05:08:13.422Z,999.90
2024-04-14T05:09:13.449Z,999.90
2024-04-14T05:10:13.407Z,999.90
2024-04-14T05:11:13.506Z,999.90
2024-04-14T05:12:13.388Z,999.90
2024-04-14T05:13:13.391Z,999.90
2024-04-14T05:14:13.358Z,999.90
2024-04-14T05:15:13.346Z,999.90
2024-04-14T05:16:13.339Z,999.90
2024-04-14T05:17:13.422Z,999.90
2024-04-14T05:18:13.434Z,999.90
2024-04-14T05:19:13.391Z,999.90
2024-04-14T05:20:13.310Z,999.90
2024-04-14T05:21:13.317Z,999.90
2024-04-14T05:22:13.297Z,999.90
2024-04-14T05:23:13.350Z,999.90
2024-04-14T05:24:13.297Z,999.90
2024-04-14T05:25:13.351Z,999.90
2024-04-14T05:26:13.242Z,999.90
2024-04-14T05:27:13.262Z,999.90
2024-04-14T05:28:13.220Z,999.90
2024-04-14T05:29:13.274Z,999.90
2024-04-14T05:30:13.210Z,999.90
2024-04-14T05:31:13.252Z,999.90
2024-04-14T05:32:13.238Z,999.90
2024-04-14T05:33:13.278Z,999.90
2024-04-14T05:34:13.206Z,940.90
2024-04-14T05:35:13.213Z,999.90
2024-04-14T05:36:13.188Z,999.90
2024-04-14T05:37:13.156Z,925.10
2024-04-14T05:38:13.141Z,999.90
2024-04-14T05:39:13.153Z,999.90
2024-04-14T05:40:13.129Z,999.90
2024-04-14T05:41:13.163Z,999.90
2024-04-14T05:42:13.094Z,858.50
2024-04-14T05:43:13.116Z,894.40
2024-04-14T05:44:13.084Z,999.90
2024-04-14T05:45:13.108Z,804.10
2024-04-14T05:46:13.073Z,999.90
2024-04-14T05:47:13.142Z,999.90
2024-04-14T05:48:13.190Z,917.80
2024-04-14T05:49:18.700Z,999.90
2024-04-14T05:50:13.154Z,791.20
2024-04-14T05:51:13.041Z,988.80
2024-04-14T05:52:13.076Z,999.90
2024-04-14T05:53:13.062Z,803.40
2024-04-14T05:54:13.010Z,999.90
2024-04-14T05:55:12.997Z,916.50
2024-04-14T05:56:12.995Z,916.70
2024-04-14T05:57:12.982Z,999.90
2024-04-14T05:58:12.973Z,896.70
2024-04-14T05:59:12.998Z,944.20
2024-04-14T06:00:13.050Z,892.80
2024-04-14T06:01:12.983Z,844.80
2024-04-14T06:02:12.905Z,953.70
2024-04-14T06:03:12.993Z,834.60
2024-04-14T06:04:12.982Z,834.60
2024-04-14T06:05:12.940Z,806.10
2024-04-14T06:06:12.922Z,999.90
2024-04-14T06:07:12.897Z,999.90
2024-04-14T06:08:12.915Z,708.50
2024-04-14T06:09:12.852Z,999.90
2024-04-14T06:10:12.862Z,999.90
2024-04-14T06:11:12.952Z,670.30
2024-04-14T06:12:12.813Z,999.90
2024-04-14T06:13:12.822Z,999.90
2024-04-14T06:14:12.808Z,999.90
2024-04-14T06:15:12.808Z,999.90
2024-04-14T06:16:12.816Z,999.90
2024-04-14T06:17:12.820Z,999.90
2024-04-14T06:18:12.772Z,999.90
2024-04-14T06:19:12.776Z,999.90
2024-04-14T06:20:12.753Z,999.90
2024-04-14T06:21:12.733Z,999.90
2024-04-14T06:22:12.755Z,999.90
2024-04-14T06:23:12.755Z,999.90
2024-04-14T06:24:12.726Z,999.90
2024-04-14T06:25:12.716Z,999.90
2024-04-14T06:26:12.709Z,999.90
2024-04-14T06:27:12.713Z,999.90
2024-04-14T06:28:12.701Z,999.90
2024-04-14T06:29:12.726Z,999.90
2024-04-14T06:30:12.707Z,999.90
2024-04-14T06:31:12.664Z,999.90
2024-04-14T06:32:12.707Z,999.90
2024-04-14T06:33:12.709Z,999.90
2024-04-14T06:34:12.692Z,999.90
2024-04-14T06:35:12.668Z,999.90
2024-04-14T06:36:12.614Z,999.90
2024-04-14T06:37:12.661Z,999.90
2024-04-14T06:38:12.562Z,999.90
2024-04-14T06:39:12.567Z,999.90
2024-04-14T06:40:12.644Z,999.90
2024-04-14T06:41:12.600Z,999.90
2024-04-14T06:42:14.742Z,999.90
2024-04-14T06:43:12.565Z,999.90
2024-04-14T06:44:12.517Z,999.90
2024-04-14T06:45:12.594Z,999.90
2024-04-14T06:46:12.523Z,999.90
2024-04-14T06:47:12.626Z,999.90
2024-04-14T06:48:12.527Z,999.90
2024-04-14T06:49:12.533Z,999.90
2024-04-14T06:50:12.495Z,999.90
2024-04-14T06:51:12.470Z,999.90
2024-04-14T06:52:12.456Z,999.90
2024-04-14T06:53:12.500Z,999.90
2024-04-14T06:54:12.471Z,999.90
2024-04-14T06:55:12.451Z,999.90
2024-04-14T06:56:12.420Z,999.90
2024-04-14T06:57:12.423Z,999.90
2024-04-14T06:58:12.396Z,999.90
2024-04-14T06:59:12.495Z,999.90
2024-04-14T07:00:12.393Z,999.90
2024-04-14T07:01:12.454Z,999.90
2024-04-14T07:02:12.389Z,999.90
2024-04-14T07:03:12.359Z,999.90
2024-04-14T07:04:12.470Z,999.90
2024-04-14T07:05:12.389Z,999.90
2024-04-14T07:06:12.373Z,999.90
2024-04-14T07:07:12.362Z,999.90
2024-04-14T07:08:12.333Z,999.90
2024-04-14T07:09:12.351Z,999.90
2024-04-14T07:10:12.305Z,999.90
2024-04-14T07:11:12.372Z,999.90
2024-04-14T07:12:12.297Z,999.90
2024-04-14T07:13:12.271Z,999.90
2024-04-14T07:14:12.267Z,999.90
2024-04-14T07:15:12.260Z,999.90
2024-04-14T07:16:12.213Z,999.90
2024-04-14T07:17:12.298Z,999.90
2024-04-14T07:18:12.398Z,999.90
2024-04-14T07:19:12.294Z,999.90
2024-04-14T07:20:12.198Z,999.90
2024-04-14T07:21:12.191Z,999.90
2024-04-14T07:22:12.192Z,999.90
2024-04-14T07:23:12.208Z,999.90
2024-04-14T07:24:12.149Z,999.90
2024-04-14T07:25:12.179Z,999.90
2024-04-14T07:26:12.157Z,999.90
2024-04-14T07:27:12.148Z,999.90
2024-04-14T07:28:12.159Z,999.90
2024-04-14T07:29:12.202Z,999.90
2024-04-14T07:30:12.144Z,999.90
2024-04-14T07:31:12.122Z,999.90
2024-04-14T07:32:12.136Z,999.90
2024-04-14T07:33:12.220Z,999.90
2024-04-14T07:34:12.145Z,999.90
2024-04-14T07:35:12.106Z,999.90
2024-04-14T07:36:12.059Z,999.90
2024-04-14T07:37:12.051Z,999.90
2024-04-14T07:38:12.052Z,999.90
2024-04-14T07:39:12.074Z,999.90
2024-04-14T07:40:12.060Z,999.90
2024-04-14T07:41:12.049Z,999.90
2024-04-14T07:42:12.058Z,999.90
2024-04-14T07:43:11.998Z,999.90
2024-04-14T07:44:11.996Z,999.90
2024-04-14T07:45:11.976Z,999.90
2024-04-14T07:46:11.971Z,999.90
2024-04-14T07:47:12.041Z,999.90
2024-04-14T07:48:12.099Z,999.90
2024-04-14T07:49:11.965Z,999.90
2024-04-14T07:50:11.927Z,999.90
2024-04-14T07:51:11.922Z,999.90
2024-04-14T07:52:11.939Z,999.90
2024-04-14T07:53:11.964Z,999.90
2024-04-14T07:54:11.904Z,999.90
2024-04-14T07:55:12.090Z,999.90
2024-04-14T07:56:11.878Z,999.90
2024-04-14T07:57:11.892Z,999.90
2024-04-14T07:58:11.917Z,999.90
2024-04-14T07:59:11.935Z,999.90
2024-04-14T08:00:11.840Z,999.90
2024-04-14T08:01:11.989Z,999.90
2024-04-14T08:02:11.818Z,999.90
2024-04-14T08:03:11.883Z,999.90
2024-04-14T08:04:11.962Z,999.90
2024-04-14T08:05:12.014Z,999.90
2024-04-14T08:06:11.769Z,999.90
2024-04-14T08:07:11.823Z,999.90
2024-04-14T08:08:11.785Z,999.90
2024-04-14T08:09:11.760Z,999.90
2024-04-14T08:10:11.803Z,999.90
2024-04-14T08:11:11.827Z,999.90
2024-04-14T08:12:13.157Z,999.90
2024-04-14T08:13:11.776Z,999.90
2024-04-14T08:14:11.750Z,999.90
2024-04-14T08:15:11.706Z,999.90
2024-04-14T08:16:11.784Z,999.90
2024-04-14T08:17:11.717Z,999.90
2024-04-14T08:18:11.689Z,999.90
2024-04-14T08:19:11.708Z,999.90
2024-04-14T08:20:11.666Z,999.90
2024-04-14T08:21:11.641Z,999.90
2024-04-14T08:22:11.734Z,999.90
2024-04-14T08:23:11.699Z,999.90
2024-04-14T08:24:11.646Z,999.90
2024-04-14T08:25:11.671Z,999.90
2024-04-14T08:26:11.638Z,999.90
2024-04-14T08:27:11.619Z,999.90
2024-04-14T08:28:13.392Z,999.90
2024-04-14T08:29:11.646Z,999.90
2024-04-14T08:30:11.589Z,999.90
2024-04-14T08:31:11.557Z,999.90
2024-04-14T08:32:11.567Z,999.90
2024-04-14T08:33:11.683Z,999.90
2024-04-14T08:34:11.564Z,999.90
2024-04-14T08:35:11.577Z,999.90
2024-04-14T08:36:11.565Z,999.90
2024-04-14T08:37:11.579Z,999.90
2024-04-14T08:38:11.487Z,999.90
2024-04-14T08:39:11.494Z,999.90
2024-04-14T08:40:11.576Z,999.90
2024-04-14T08:41:11.504Z,999.90
2024-04-14T08:42:11.456Z,999.90
2024-04-14T08:43:11.482Z,999.90
2024-04-14T08:44:11.423Z,999.90
2024-04-14T08:45:11.405Z,999.90
2024-04-14T08:46:11.530Z,999.90
2024-04-14T08:47:11.443Z,999.90
2024-04-14T08:48:11.423Z,999.90
2024-04-14T08:49:11.485Z,999.90
2024-04-14T08:50:11.401Z,999.90
2024-04-14T08:51:11.367Z,999.90
2024-04-14T08:52:11.409Z,999.90
2024-04-14T08:53:11.414Z,999.90
2024-04-14T08:54:11.328Z,999.90
2024-04-14T08:55:11.348Z,999.90
2024-04-14T08:56:11.363Z,999.90
2024-04-14T08:57:11.328Z,999.90
2024-04-14T08:58:11.354Z,999.90
2024-04-14T08:59:11.347Z,999.90
2024-04-14T09:00:11.305Z,999.90
2024-04-14T09:01:11.334Z,999.90
2024-04-14T09:02:11.310Z,999.90
2024-04-14T09:03:11.273Z,999.90
2024-04-14T09:04:11.343Z,999.90
2024-04-14T09:05:11.287Z,999.90
2024-04-14T09:06:11.291Z,999.90
2024-04-14T09:07:11.276Z,999.90
2024-04-14T09:08:11.230Z,999.90
2024-04-14T09:09:11.223Z,999.90
2024-04-14T09:10:11.238Z,999.90
2024-04-14T09:11:11.334Z,999.90
2024-04-14T09:12:11.196Z,999.90
2024-04-14T09:13:11.228Z,999.90
2024-04-14T09:14:11.174Z,999.90
2024-04-14T09:15:11.162Z,89.00
2024-04-14T09:16:11.240Z,73.30
2024-04-14T09:17:11.193Z,78.30
2024-04-14T09:18:11.120Z,78.30
2024-04-14T09:19:11.146Z,74.60
2024-04-14T09:20:11.118Z,70.30
2024-04-14T09:21:11.109Z,79.10
2024-04-14T09:22:11.142Z,80.50
2024-04-14T09:23:11.127Z,79.30
2024-04-14T09:24:11.067Z,999.90
2024-04-14T09:25:11.079Z,103.00
2024-04-14T09:26:11.102Z,120.00
2024-04-14T09:27:11.045Z,121.80
2024-04-14T09:28:11.085Z,111.90
2024-04-14T09:29:11.045Z,106.30
2024-04-14T09:30:11.031Z,89.80
2024-04-14T09:31:11.065Z,91.50
2024-04-14T09:32:11.021Z,108.10
2024-04-14T09:33:11.040Z,138.10
2024-04-14T09:34:11.009Z,164.80
2024-04-14T09:35:11.036Z,178.00
2024-04-14T09:36:10.981Z,175.30
2024-04-14T09:37:10.985Z,181.20
2024-04-14T09:38:10.937Z,203.70
2024-04-14T09:39:10.944Z,208.80
2024-04-14T09:40:10.955Z,227.10
2024-04-14T09:41:10.947Z,215.90
2024-04-14T09:42:10.911Z,236.30
2024-04-14T09:43:10.910Z,251.30
2024-04-14T09:44:10.937Z,239.60
2024-04-14T09:45:10.894Z,249.60
2024-04-14T09:46:11.025Z,244.40
2024-04-14T09:47:10.963Z,248.60
2024-04-14T09:48:10.930Z,253.10
2024-04-14T09:49:10.935Z,392.30
2024-04-14T09:50:10.849Z,328.20
2024-04-14T09:51:10.833Z,265.10
2024-04-14T09:52:10.854Z,274.00
2024-04-14T09:53:10.839Z,301.00
2024-04-14T09:54:10.805Z,433.30
2024-04-14T09:55:10.829Z,479.90
2024-04-14T09:56:10.831Z,350.30
2024-04-14T09:57:10.782Z,409.90
2024-04-14T09:58:10.841Z,441.00
2024-04-14T09:59:10.817Z,459.70
2024-04-14T10:00:10.773Z,445.20
2024-04-14T10:01:10.809Z,417.50
2024-04-14T10:02:10.774Z,454.60
2024-04-14T10:03:10.748Z,474.40
2024-04-14T10:04:10.906Z,449.20
2024-04-14T10:05:10.799Z,459.00
2024-04-14T10:06:10.690Z,489.50
2024-04-14T10:07:10.752Z,528.50
2024-04-14T10:08:10.702Z,504.40
2024-04-14T10:09:10.670Z,486.90
2024-04-14T10:10:10.703Z,486.20
2024-04-14T10:11:10.721Z,594.90
2024-04-14T10:12:10.685Z,523.30
2024-04-14T10:13:10.660Z,479.80
2024-04-14T10:14:10.647Z,221.10
2024-04-14T10:15:10.632Z,246.00
2024-04-14T10:16:10.728Z,215.40
2024-04-14T10:17:10.674Z,228.40
2024-04-14T10:18:10.616Z,141.20
2024-04-14T10:19:10.600Z,104.20
2024-04-14T10:20:10.586Z,68.60
2024-04-14T10:21:10.564Z,101.60
2024-04-14T10:22:10.650Z,373.40
2024-04-14T10:23:10.611Z,310.90
2024-04-14T10:24:10.558Z,340.20
2024-04-14T10:25:10.608Z,333.90
2024-04-14T10:26:10.542Z,325.40
2024-04-14T10:27:10.532Z,303.20
2024-04-14T10:28:10.586Z,298.30
2024-04-14T10:29:10.552Z,301.60
2024-04-14T10:30:10.499Z,303.10
2024-04-14T10:31:10.546Z,291.70
2024-04-14T10:32:10.478Z,270.20
2024-04-14T10:33:10.636Z,242.40
2024-04-14T10:34:10.681Z,288.00
2024-04-14T10:35:10.556Z,375.70
2024-04-14T10:36:10.436Z,445.40
2024-04-14T10:37:10.478Z,480.20
2024-04-14T10:38:10.449Z,606.40
2024-04-14T10:39:10.469Z,590.60
2024-04-14T10:40:10.423Z,595.80
2024-04-14T10:41:10.448Z,627.90
2024-04-14T10:42:10.400Z,613.30
2024-04-14T10:43:10.428Z,599.80
2024-04-14T10:44:10.375Z,548.10
2024-04-14T10:45:10.384Z,523.70
2024-04-14T10:46:10.385Z,561.90
2024-04-14T10:47:10.388Z,640.10
2024-04-14T10:48:10.376Z,625.20
2024-04-14T10:49:10.347Z,644.40
2024-04-14T10:50:10.315Z,648.70
2024-04-14T10:51:10.313Z,603.80
2024-04-14T10:52:10.358Z,570.60
2024-04-14T10:53:10.352Z,609.90
2024-04-14T10:54:10.264Z,653.60
2024-04-14T10:55:10.376Z,643.60
2024-04-14T10:56:10.276Z,642.40
2024-04-14T10:57:10.291Z,604.30
2024-04-14T10:58:10.277Z,585.20
2024-04-14T10:59:10.296Z,558.40
2024-04-14T11:00:10.234Z,512.70
2024-04-14T11:01:10.263Z,505.80
2024-04-14T11:02:10.200Z,515.80
2024-04-14T11:03:10.268Z,629.50
2024-04-14T11:04:10.287Z,598.40
2024-04-14T11:05:10.260Z,323.10
2024-04-14T11:06:10.200Z,352.40
2024-04-14T11:07:10.194Z,418.60
2024-04-14T11:08:12.156Z,477.70
2024-04-14T11:09:10.149Z,454.10
2024-04-14T11:10:10.207Z,424.90
2024-04-14T11:11:10.208Z,357.40
2024-04-14T11:12:10.139Z,193.10
2024-04-14T11:13:10.167Z,140.70
2024-04-14T11:14:10.096Z,149.90
2024-04-14T11:15:11.869Z,187.90
2024-04-14T11:16:10.199Z,377.70
2024-04-14T11:17:10.136Z,292.30
2024-04-14T11:18:10.153Z,266.10
2024-04-14T11:19:10.111Z,247.10
2024-04-14T11:20:10.068Z,232.30
2024-04-14T11:21:10.031Z,222.30
2024-04-14T11:22:10.111Z,216.50
2024-04-14T11:23:10.075Z,200.70
2024-04-14T11:24:10.023Z,200.50
2024-04-14T11:25:10.038Z,199.70
2024-04-14T11:26:09.994Z,205.10
2024-04-14T11:27:09.998Z,220.90
2024-04-14T11:28:10.082Z,237.30
2024-04-14T11:29:10.027Z,242.70
2024-04-14T11:30:09.962Z,235.30
2024-04-14T11:31:10.083Z,242.10
2024-04-14T11:32:09.955Z,241.40
2024-04-14T11:33:10.023Z,249.80
2024-04-14T11:34:12.670Z,262.60
2024-04-14T11:35:10.003Z,270.70
2024-04-14T11:36:09.899Z,267.60
2024-04-14T11:37:09.954Z,257.90
2024-04-14T11:38:09.901Z,230.30
2024-04-14T11:39:09.982Z,233.80
2024-04-14T11:40:12.017Z,236.70
2024-04-14T11:41:10.048Z,239.00
2024-04-14T11:42:09.874Z,241.30
2024-04-14T11:43:09.905Z,237.90
2024-04-14T11:44:09.868Z,234.40
2024-04-14T11:45:09.833Z,230.50
2024-04-14T11:46:11.756Z,241.10
2024-04-14T11:47:09.908Z,241.90
2024-04-14T11:48:09.808Z,239.90
2024-04-14T11:49:09.877Z,246.90
2024-04-14T11:50:09.803Z,272.10
2024-04-14T11:51:09.787Z,304.60
2024-04-14T11:52:10.804Z,320.20
2024-04-14T11:53:09.845Z,314.30
2024-04-14T11:54:09.765Z,286.20
2024-04-14T11:55:09.843Z,289.80
2024-04-14T11:56:09.770Z,294.70
2024-04-14T11:57:09.756Z,282.70
2024-04-14T11:58:09.776Z,288.50
2024-04-14T11:59:09.787Z,266.10
2024-04-14T12:00:09.737Z,246.10
2024-04-14T12:01:09.741Z,260.20
2024-04-14T12:02:09.709Z,273.60
2024-04-14T12:03:09.741Z,295.40
2024-04-14T12:04:09.894Z,362.50
2024-04-14T12:05:09.723Z,413.20
2024-04-14T12:06:10.829Z,471.00
2024-04-14T12:07:09.726Z,496.90
2024-04-14T12:08:09.646Z,522.40
2024-04-14T12:09:09.658Z,538.30
2024-04-14T12:10:09.700Z,624.90
2024-04-14T12:11:09.714Z,596.50
2024-04-14T12:12:11.412Z,622.70
2024-04-14T12:13:09.657Z,601.20
2024-04-14T12:14:09.628Z,595.70
2024-04-14T12:15:09.574Z,623.70
2024-04-14T12:16:09.673Z,635.90
2024-04-14T12:17:09.632Z,620.00
2024-04-14T12:18:11.455Z,603.10
2024-04-14T12:19:09.594Z,617.50
2024-04-14T12:20:09.565Z,625.30
2024-04-14T12:21:09.547Z,639.00
2024-04-14T12:22:09.552Z,679.10
2024-04-14T12:23:09.544Z,707.70
2024-04-14T12:24:11.461Z,736.70
2024-04-14T12:25:09.549Z,778.60
2024-04-14T12:26:09.513Z,807.40
2024-04-14T12:27:09.472Z,840.20
2024-04-14T12:28:09.534Z,889.60